sensor_id;sensor_type;location;lat;lon;timestamp;pressure;altitude;pressure_sealevel;temperature;humidity
74834;BME280;63361;52.384;20.930;2023-02-28T00:01:01;102228.28;;;-7.04;100.00
74834;BME280;63361;52.384;20.930;2023-02-28T00:03:26;102221.59;;;-7.08;100.00
74834;BME280;63361;52.384;20.930;2023-02-28T00:05:51;102225.06;;;-7.07;100.00
74834;BME280;63361;52.384;20.930;2023-02-28T00:08:17;102224.09;;;-7.18;100.00
74834;BME280;63361;52.384;20.930;2023-02-28T00:10:42;102216.00;;;-7.26;100.00
74834;BME280;63361;52.384;20.930;2023-02-28T00:13:07;102231.59;;;-7.13;100.00
74834;BME280;63361;52.384;20.930;2023-02-28T00:15:33;102223.75;;;-7.24;100.00
74834;BME280;63361;52.384;20.930;2023-02-28T00:17:59;102233.78;;;-7.18;100.00
74834;BME280;63361;52.384;20.930;2023-02-28T00:20:24;102234.00;;;-7.21;100.00
74834;BME280;63361;52.384;20.930;2023-02-28T00:22:51;102229.22;;;-7.27;100.00
74834;BME280;63361;52.384;20.930;2023-02-28T00:25:21;102237.94;;;-7.27;100.00
74834;BME280;63361;52.384;20.930;2023-02-28T00:27:47;102241.38;;;-7.26;100.00
74834;BME280;63361;52.384;20.930;2023-02-28T00:30:16;102232.81;;;-7.39;100.00
74834;BME280;63361;52.384;20.930;2023-02-28T00:32:41;102236.59;;;-7.43;100.00
74834;BME280;63361;52.384;20.930;2023-02-28T00:35:08;102246.63;;;-7.49;100.00
74834;BME280;63361;52.384;20.930;2023-02-28T00:37:33;102246.75;;;-7.50;100.00
74834;BME280;63361;52.384;20.930;2023-02-28T00:39:59;102240.41;;;-7.48;100.00
74834;BME280;63361;52.384;20.930;2023-02-28T00:42:25;102243.88;;;-7.47;100.00
74834;BME280;63361;52.384;20.930;2023-02-28T00:44:50;102248.75;;;-7.42;100.00
74834;BME280;63361;52.384;20.930;2023-02-28T00:47:16;102236.59;;;-7.43;100.00
74834;BME280;63361;52.384;20.930;2023-02-28T00:49:41;102248.16;;;-7.46;100.00
74834;BME280;63361;52.384;20.930;2023-02-28T00:52:07;102243.13;;;-7.60;100.00
74834;BME280;63361;52.384;20.930;2023-02-28T00:54:32;102255.06;;;-7.56;100.00
74834;BME280;63361;52.384;20.930;2023-02-28T00:56:59;102255.78;;;-7.54;100.00
74834;BME280;63361;52.384;20.930;2023-02-28T00:59:24;102229.13;;;-7.37;100.00
74834;BME280;63361;52.384;20.930;2023-02-28T01:01:50;102238.63;;;-7.47;100.00
74834;BME280;63361;52.384;20.930;2023-02-28T01:04:15;102240.56;;;-7.49;100.00
74834;BME280;63361;52.384;20.930;2023-02-28T01:06:41;102236.22;;;-7.61;100.00
74834;BME280;63361;52.384;20.930;2023-02-28T01:09:07;102244.34;;;-7.64;100.00
74834;BME280;63361;52.384;20.930;2023-02-28T01:11:33;102239.22;;;-7.55;100.00
74834;BME280;63361;52.384;20.930;2023-02-28T01:13:59;102237.25;;;-7.75;100.00
74834;BME280;63361;52.384;20.930;2023-02-28T01:16:25;102254.22;;;-7.68;100.00
74834;BME280;63361;52.384;20.930;2023-02-28T01:18:50;102231.63;;;-7.93;100.00
74834;BME280;63361;52.384;20.930;2023-02-28T01:21:17;102244.19;;;-7.74;100.00
74834;BME280;63361;52.384;20.930;2023-02-28T01:23:44;102255.78;;;-7.54;100.00
74834;BME280;63361;52.384;20.930;2023-02-28T01:26:13;102259.03;;;-7.06;100.00
74834;BME280;63361;52.384;20.930;2023-02-28T01:28:38;102259.03;;;-6.72;100.00
74834;BME280;63361;52.384;20.930;2023-02-28T01:31:04;102246.72;;;-6.83;100.00
74834;BME280;63361;52.384;20.930;2023-02-28T01:33:29;102245.81;;;-7.04;100.00
74834;BME280;63361;52.384;20.930;2023-02-28T01:36:05;102238.66;;;-7.25;100.00
74834;BME280;63361;52.384;20.930;2023-02-28T01:38:32;102260.34;;;-7.23;100.00
74834;BME280;63361;52.384;20.930;2023-02-28T01:40:57;102264.97;;;-7.49;100.00
74834;BME280;63361;52.384;20.930;2023-02-28T01:43:28;102257.19;;;-7.61;100.00
74834;BME280;63361;52.384;20.930;2023-02-28T01:45:55;102253.09;;;-7.88;100.00
74834;BME280;63361;52.384;20.930;2023-02-28T01:48:24;102253.31;;;-7.91;100.00
74834;BME280;63361;52.384;20.930;2023-02-28T01:50:51;102265.31;;;-7.53;100.00
74834;BME280;63361;52.384;20.930;2023-02-28T01:53:21;102255.34;;;-7.37;100.00
74834;BME280;63361;52.384;20.930;2023-02-28T01:55:50;102263.03;;;-7.58;100.00
74834;BME280;63361;52.384;20.930;2023-02-28T01:58:17;102254.19;;;-7.79;100.00
74834;BME280;63361;52.384;20.930;2023-02-28T02:00:43;102255.69;;;-7.88;100.00
74834;BME280;63361;52.384;20.930;2023-02-28T02:03:11;102252.94;;;-7.97;100.00
74834;BME280;63361;52.384;20.930;2023-02-28T02:05:39;102261.84;;;-8.00;100.00
74834;BME280;63361;52.384;20.930;2023-02-28T02:08:08;102237.41;;;-8.11;100.00
74834;BME280;63361;52.384;20.930;2023-02-28T02:10:41;102254.56;;;-8.07;100.00
74834;BME280;63361;52.384;20.930;2023-02-28T02:19:44;102252.22;;;-7.99;100.00
74834;BME280;63361;52.384;20.930;2023-02-28T02:28:21;102256.66;;;-6.98;100.00
74834;BME280;63361;52.384;20.930;2023-02-28T02:36:23;102255.22;;;-7.02;100.00
74834;BME280;63361;52.384;20.930;2023-02-28T02:38:54;102257.72;;;-6.78;100.00
74834;BME280;63361;52.384;20.930;2023-02-28T02:41:36;102261.28;;;-6.79;100.00
74834;BME280;63361;52.384;20.930;2023-02-28T02:46:49;102261.97;;;-6.66;100.00
74834;BME280;63361;52.384;20.930;2023-02-28T02:49:30;102264.97;;;-6.59;100.00
74834;BME280;63361;52.384;20.930;2023-02-28T02:52:02;102257.97;;;-7.03;100.00
74834;BME280;63361;52.384;20.930;2023-02-28T02:54:30;102267.16;;;-6.98;100.00
74834;BME280;63361;52.384;20.930;2023-02-28T02:57:01;102269.53;;;-7.28;100.00
74834;BME280;63361;52.384;20.930;2023-02-28T02:59:29;102252.19;;;-7.64;100.00
74834;BME280;63361;52.384;20.930;2023-02-28T03:01:58;102272.91;;;-7.72;100.00
74834;BME280;63361;52.384;20.930;2023-02-28T03:04:27;102256.50;;;-7.98;100.00
74834;BME280;63361;52.384;20.930;2023-02-28T03:06:55;102257.16;;;-8.07;100.00
74834;BME280;63361;52.384;20.930;2023-02-28T03:09:22;102257.81;;;-7.93;100.00
74834;BME280;63361;52.384;20.930;2023-02-28T03:11:48;102274.25;;;-7.56;100.00
74834;BME280;63361;52.384;20.930;2023-02-28T03:27:10;102271.84;;;-8.29;100.00
74834;BME280;63361;52.384;20.930;2023-02-28T03:29:47;102261.69;;;-8.44;100.00
74834;BME280;63361;52.384;20.930;2023-02-28T03:35:01;102269.25;;;-8.53;100.00
74834;BME280;63361;52.384;20.930;2023-02-28T03:37:31;102273.63;;;-8.53;100.00
74834;BME280;63361;52.384;20.930;2023-02-28T03:40:07;102270.97;;;-8.17;100.00
74834;BME280;63361;52.384;20.930;2023-02-28T03:42:36;102266.16;;;-7.99;100.00
74834;BME280;63361;52.384;20.930;2023-02-28T03:45:11;102272.75;;;-8.17;100.00
74834;BME280;63361;52.384;20.930;2023-02-28T03:47:52;102268.03;;;-8.36;100.00
74834;BME280;63361;52.384;20.930;2023-02-28T03:50:39;102280.19;;;-8.24;100.00
74834;BME280;63361;52.384;20.930;2023-02-28T03:53:13;102275.78;;;-8.23;100.00
74834;BME280;63361;52.384;20.930;2023-02-28T03:55:42;102282.41;;;-8.41;100.00
74834;BME280;63361;52.384;20.930;2023-02-28T03:58:27;102286.72;;;-8.53;100.00
74834;BME280;63361;52.384;20.930;2023-02-28T04:01:01;102292.84;;;-8.65;100.00
74834;BME280;63361;52.384;20.930;2023-02-28T04:03:34;102271.84;;;-8.76;100.00
74834;BME280;63361;52.384;20.930;2023-02-28T04:05:59;102296.84;;;-8.72;100.00
74834;BME280;63361;52.384;20.930;2023-02-28T04:08:25;102286.81;;;-8.42;100.00
74834;BME280;63361;52.384;20.930;2023-02-28T04:11:01;102291.69;;;-8.13;100.00
74834;BME280;63361;52.384;20.930;2023-02-28T04:13:28;102279.41;;;-8.48;100.00
74834;BME280;63361;52.384;20.930;2023-02-28T04:15:53;102283.16;;;-8.52;100.00
74834;BME280;63361;52.384;20.930;2023-02-28T04:18:19;102280.91;;;-8.69;100.00
74834;BME280;63361;52.384;20.930;2023-02-28T04:20:44;102270.59;;;-8.83;100.00
74834;BME280;63361;52.384;20.930;2023-02-28T04:23:09;102277.44;;;-8.57;100.00
74834;BME280;63361;52.384;20.930;2023-02-28T04:25:34;102286.72;;;-8.53;100.00
74834;BME280;63361;52.384;20.930;2023-02-28T04:28:00;102288.03;;;-8.59;100.00
74834;BME280;63361;52.384;20.930;2023-02-28T04:30:25;102289.59;;;-8.69;100.00
74834;BME280;63361;52.384;20.930;2023-02-28T04:32:50;102274.88;;;-8.82;100.00
74834;BME280;63361;52.384;20.930;2023-02-28T04:35:16;102275.72;;;-8.82;100.00
74834;BME280;63361;52.384;20.930;2023-02-28T04:37:41;102280.78;;;-8.92;100.00
74834;BME280;63361;52.384;20.930;2023-02-28T04:40:07;102295.81;;;-8.82;100.00
74834;BME280;63361;52.384;20.930;2023-02-28T04:42:32;102272.97;;;-8.68;100.00
74834;BME280;63361;52.384;20.930;2023-02-28T04:45:02;102267.19;;;-8.36;100.00
74834;BME280;63361;52.384;20.930;2023-02-28T04:47:27;102294.00;;;-8.33;100.00
74834;BME280;63361;52.384;20.930;2023-02-28T04:49:53;102286.84;;;-8.55;100.00
74834;BME280;63361;52.384;20.930;2023-02-28T04:52:18;102283.78;;;-8.72;100.00
74834;BME280;63361;52.384;20.930;2023-02-28T04:54:43;102291.19;;;-8.79;100.00
74834;BME280;63361;52.384;20.930;2023-02-28T04:57:09;102291.63;;;-8.85;100.00
74834;BME280;63361;52.384;20.930;2023-02-28T04:59:34;102292.69;;;-8.88;100.00
74834;BME280;63361;52.384;20.930;2023-02-28T05:01:59;102294.06;;;-8.95;100.00
74834;BME280;63361;52.384;20.930;2023-02-28T05:04:25;102299.28;;;-8.95;100.00
74834;BME280;63361;52.384;20.930;2023-02-28T05:06:50;102292.09;;;-9.04;100.00
74834;BME280;63361;52.384;20.930;2023-02-28T05:09:15;102294.47;;;-9.01;100.00
74834;BME280;63361;52.384;20.930;2023-02-28T05:11:41;102316.44;;;-8.91;100.00
74834;BME280;63361;52.384;20.930;2023-02-28T05:14:11;102300.31;;;-8.84;100.00
74834;BME280;63361;52.384;20.930;2023-02-28T05:16:36;102320.41;;;-8.85;100.00
74834;BME280;63361;52.384;20.930;2023-02-28T05:19:03;102317.19;;;-8.89;100.00
74834;BME280;63361;52.384;20.930;2023-02-28T05:21:32;102309.44;;;-8.90;100.00
74834;BME280;63361;52.384;20.930;2023-02-28T05:24:03;102330.56;;;-8.80;100.00
74834;BME280;63361;52.384;20.930;2023-02-28T05:26:29;102325.63;;;-8.85;100.00
74834;BME280;63361;52.384;20.930;2023-02-28T05:28:55;102337.66;;;-8.70;100.00
74834;BME280;63361;52.384;20.930;2023-02-28T05:31:21;102326.78;;;-8.76;100.00
74834;BME280;63361;52.384;20.930;2023-02-28T05:33:46;102331.38;;;-8.67;100.00
74834;BME280;63361;52.384;20.930;2023-02-28T05:36:12;102342.88;;;-8.57;100.00
74834;BME280;63361;52.384;20.930;2023-02-28T05:38:37;102333.34;;;-8.58;100.00
74834;BME280;63361;52.384;20.930;2023-02-28T05:41:08;102338.13;;;-8.52;100.00
74834;BME280;63361;52.384;20.930;2023-02-28T05:43:34;102354.78;;;-8.40;100.00
74834;BME280;63361;52.384;20.930;2023-02-28T05:46:03;102342.00;;;-8.45;100.00
74834;BME280;63361;52.384;20.930;2023-02-28T05:48:29;102350.66;;;-8.32;100.00
74834;BME280;63361;52.384;20.930;2023-02-28T05:50:54;102341.00;;;-8.31;100.00
74834;BME280;63361;52.384;20.930;2023-02-28T05:53:21;102322.34;;;-8.27;100.00
74834;BME280;63361;52.384;20.930;2023-02-28T05:55:47;102338.81;;;-7.66;100.00
74834;BME280;63361;52.384;20.930;2023-02-28T05:58:12;102346.59;;;-7.53;100.00
74834;BME280;63361;52.384;20.930;2023-02-28T06:00:38;102347.69;;;-7.45;100.00
74834;BME280;63361;52.384;20.930;2023-02-28T06:03:03;102361.59;;;-7.09;100.00
74834;BME280;63361;52.384;20.930;2023-02-28T06:05:28;102340.25;;;-7.16;100.00
74834;BME280;63361;52.384;20.930;2023-02-28T06:07:54;102360.44;;;-6.94;100.00
74834;BME280;63361;52.384;20.930;2023-02-28T06:10:19;102352.94;;;-6.76;100.00
74834;BME280;63361;52.384;20.930;2023-02-28T06:12:45;102365.22;;;-6.77;100.00
74834;BME280;63361;52.384;20.930;2023-02-28T06:15:14;102329.44;;;-6.89;100.00
74834;BME280;63361;52.384;20.930;2023-02-28T06:17:41;102368.44;;;-6.62;100.00
74834;BME280;63361;52.384;20.930;2023-02-28T06:20:08;102374.31;;;-6.58;100.00
74834;BME280;63361;52.384;20.930;2023-02-28T06:22:35;102368.91;;;-6.57;100.00
74834;BME280;63361;52.384;20.930;2023-02-28T06:25:01;102364.63;;;-6.47;100.00
74834;BME280;63361;52.384;20.930;2023-02-28T06:27:26;102353.38;;;-6.26;100.00
74834;BME280;63361;52.384;20.930;2023-02-28T06:29:54;102361.16;;;-5.93;100.00
74834;BME280;63361;52.384;20.930;2023-02-28T06:32:21;102357.66;;;-5.61;100.00
74834;BME280;63361;52.384;20.930;2023-02-28T06:34:46;102360.50;;;-5.12;100.00
74834;BME280;63361;52.384;20.930;2023-02-28T06:37:12;102353.13;;;-5.18;100.00
74834;BME280;63361;52.384;20.930;2023-02-28T06:39:37;102350.34;;;-4.96;100.00
74834;BME280;63361;52.384;20.930;2023-02-28T06:42:03;102345.94;;;-4.65;100.00
74834;BME280;63361;52.384;20.930;2023-02-28T06:44:28;102330.34;;;-4.28;100.00
74834;BME280;63361;52.384;20.930;2023-02-28T06:47:04;102338.34;;;-3.89;100.00
74834;BME280;63361;52.384;20.930;2023-02-28T06:49:31;102344.16;;;-3.76;100.00
74834;BME280;63361;52.384;20.930;2023-02-28T06:51:57;102331.13;;;-3.68;100.00
74834;BME280;63361;52.384;20.930;2023-02-28T06:54:22;102342.22;;;-3.45;100.00
74834;BME280;63361;52.384;20.930;2023-02-28T06:56:48;102328.19;;;-3.74;100.00
74834;BME280;63361;52.384;20.930;2023-02-28T06:59:14;102314.16;;;-3.65;100.00
74834;BME280;63361;52.384;20.930;2023-02-28T07:01:39;102319.13;;;-3.24;100.00
74834;BME280;63361;52.384;20.930;2023-02-28T07:04:05;102328.19;;;-2.52;100.00
74834;BME280;63361;52.384;20.930;2023-02-28T07:06:31;102306.13;;;-1.98;100.00
74834;BME280;63361;52.384;20.930;2023-02-28T07:08:57;102312.84;;;-0.14;100.00
74834;BME280;63361;52.384;20.930;2023-02-28T07:11:24;102313.03;;;2.30;97.95
74834;BME280;63361;52.384;20.930;2023-02-28T07:13:51;102307.50;;;3.36;92.63
74834;BME280;63361;52.384;20.930;2023-02-28T07:16:16;102305.38;;;5.77;79.36
74834;BME280;63361;52.384;20.930;2023-02-28T07:18:42;102302.19;;;7.65;65.53
74834;BME280;63361;52.384;20.930;2023-02-28T07:21:11;102317.13;;;8.37;59.08
74834;BME280;63361;52.384;20.930;2023-02-28T07:23:38;102301.41;;;9.27;52.67
74834;BME280;63361;52.384;20.930;2023-02-28T07:26:05;102301.22;;;9.76;47.99
74834;BME280;63361;52.384;20.930;2023-02-28T07:28:30;102301.84;;;11.08;43.36
74834;BME280;63361;52.384;20.930;2023-02-28T07:30:55;102296.47;;;12.17;41.64
74834;BME280;63361;52.384;20.930;2023-02-28T07:33:21;102284.97;;;13.32;37.41
74834;BME280;63361;52.384;20.930;2023-02-28T07:35:46;102294.72;;;14.30;34.69
74834;BME280;63361;52.384;20.930;2023-02-28T07:38:11;102287.94;;;15.02;33.57
74834;BME280;63361;52.384;20.930;2023-02-28T07:40:39;102279.16;;;15.47;33.17
74834;BME280;63361;52.384;20.930;2023-02-28T07:43:04;102298.72;;;16.57;29.85
74834;BME280;63361;52.384;20.930;2023-02-28T07:45:30;102291.69;;;17.51;29.61
74834;BME280;63361;52.384;20.930;2023-02-28T07:47:57;102283.75;;;16.34;26.68
74834;BME280;63361;52.384;20.930;2023-02-28T07:50:23;102282.44;;;15.49;29.01
74834;BME280;63361;52.384;20.930;2023-02-28T07:52:49;102254.56;;;16.55;25.70
74834;BME280;63361;52.384;20.930;2023-02-28T07:55:14;102262.72;;;16.04;26.68
74834;BME280;63361;52.384;20.930;2023-02-28T07:57:40;102270.38;;;16.53;25.16
74834;BME280;63361;52.384;20.930;2023-02-28T08:00:08;102291.78;;;11.32;31.06
74834;BME280;63361;52.384;20.930;2023-02-28T08:02:35;102297.69;;;8.85;35.83
74834;BME280;63361;52.384;20.930;2023-02-28T08:05:00;102303.47;;;10.86;31.74
74834;BME280;63361;52.384;20.930;2023-02-28T08:07:26;102275.84;;;9.47;35.54
74834;BME280;63361;52.384;20.930;2023-02-28T08:09:51;102292.13;;;12.16;31.97
74834;BME280;63361;52.384;20.930;2023-02-28T08:12:17;102292.66;;;13.18;29.83
74834;BME280;63361;52.384;20.930;2023-02-28T08:14:42;102289.84;;;14.32;28.85
74834;BME280;63361;52.384;20.930;2023-02-28T08:17:09;102304.03;;;14.39;27.43
74834;BME280;63361;52.384;20.930;2023-02-28T08:19:34;102303.56;;;14.21;27.13
74834;BME280;63361;52.384;20.930;2023-02-28T08:22:00;102290.81;;;15.32;27.04
74834;BME280;63361;52.384;20.930;2023-02-28T08:24:25;102291.25;;;15.14;24.98
74834;BME280;63361;52.384;20.930;2023-02-28T08:26:50;102302.25;;;16.37;25.57
74834;BME280;63361;52.384;20.930;2023-02-28T08:29:16;102283.63;;;15.06;25.30
74834;BME280;63361;52.384;20.930;2023-02-28T08:31:43;102304.94;;;14.45;27.89
74834;BME280;63361;52.384;20.930;2023-02-28T08:34:11;102314.69;;;11.93;28.61
74834;BME280;63361;52.384;20.930;2023-02-28T08:36:37;102314.13;;;13.42;29.79
74834;BME280;63361;52.384;20.930;2023-02-28T08:39:03;102294.53;;;10.85;30.49
74834;BME280;63361;52.384;20.930;2023-02-28T08:41:28;102305.56;;;14.57;27.61
74834;BME280;63361;52.384;20.930;2023-02-28T08:43:54;102295.09;;;15.80;24.44
74834;BME280;63361;52.384;20.930;2023-02-28T08:46:19;102306.66;;;16.64;23.59
74834;BME280;63361;52.384;20.930;2023-02-28T08:48:45;102291.38;;;17.68;23.29
74834;BME280;63361;52.384;20.930;2023-02-28T08:51:14;102312.03;;;17.19;23.26
74834;BME280;63361;52.384;20.930;2023-02-28T08:53:41;102288.53;;;15.66;25.15
74834;BME280;63361;52.384;20.930;2023-02-28T08:56:09;102307.38;;;13.93;26.56
74834;BME280;63361;52.384;20.930;2023-02-28T08:58:35;102317.03;;;13.57;27.28
74834;BME280;63361;52.384;20.930;2023-02-28T09:01:10;102313.28;;;13.85;27.24
74834;BME280;63361;52.384;20.930;2023-02-28T09:03:40;102308.09;;;11.60;30.01
74834;BME280;63361;52.384;20.930;2023-02-28T09:06:07;102315.25;;;13.07;28.43
74834;BME280;63361;52.384;20.930;2023-02-28T09:08:33;102297.38;;;14.52;26.55
74834;BME280;63361;52.384;20.930;2023-02-28T09:10:58;102323.19;;;15.96;24.96
74834;BME280;63361;52.384;20.930;2023-02-28T09:13:25;102303.91;;;16.48;24.40
74834;BME280;63361;52.384;20.930;2023-02-28T09:15:50;102284.81;;;16.59;24.27
74834;BME280;63361;52.384;20.930;2023-02-28T09:18:16;102283.34;;;17.22;23.70
74834;BME280;63361;52.384;20.930;2023-02-28T09:20:42;102310.97;;;17.05;23.01
74834;BME280;63361;52.384;20.930;2023-02-28T09:23:09;102297.97;;;17.56;23.18
74834;BME280;63361;52.384;20.930;2023-02-28T09:25:35;102299.03;;;17.71;22.72
74834;BME280;63361;52.384;20.930;2023-02-28T09:28:00;102290.78;;;16.96;22.53
74834;BME280;63361;52.384;20.930;2023-02-28T09:30:26;102303.75;;;15.62;24.25
74834;BME280;63361;52.384;20.930;2023-02-28T09:32:51;102269.44;;;15.56;24.76
74834;BME280;63361;52.384;20.930;2023-02-28T09:35:23;102293.72;;;14.09;26.57
74834;BME280;63361;52.384;20.930;2023-02-28T09:37:51;102301.69;;;16.20;24.17
74834;BME280;63361;52.384;20.930;2023-02-28T09:40:21;102301.13;;;15.30;25.09
74834;BME280;63361;52.384;20.930;2023-02-28T09:42:49;102304.13;;;14.82;25.12
74834;BME280;63361;52.384;20.930;2023-02-28T09:47:47;102285.84;;;15.19;23.90
74834;BME280;63361;52.384;20.930;2023-02-28T09:52:52;102288.28;;;15.78;24.59
74834;BME280;63361;52.384;20.930;2023-02-28T09:55:31;102301.16;;;16.23;23.49
74834;BME280;63361;52.384;20.930;2023-02-28T09:58:00;102309.88;;;17.01;23.07
74834;BME280;63361;52.384;20.930;2023-02-28T10:00:36;102300.50;;;17.28;23.12
74834;BME280;63361;52.384;20.930;2023-02-28T10:05:39;102293.03;;;16.79;23.45
74834;BME280;63361;52.384;20.930;2023-02-28T10:08:14;102318.53;;;13.48;26.63
74834;BME280;63361;52.384;20.930;2023-02-28T10:10:45;102314.63;;;14.36;26.28
74834;BME280;63361;52.384;20.930;2023-02-28T10:13:19;102309.25;;;15.72;24.77
74834;BME280;63361;52.384;20.930;2023-02-28T10:15:51;102317.22;;;16.04;25.18
74834;BME280;63361;52.384;20.930;2023-02-28T10:18:23;102315.34;;;14.90;24.71
74834;BME280;63361;52.384;20.930;2023-02-28T10:20:50;102304.22;;;11.56;30.12
74834;BME280;63361;52.384;20.930;2023-02-28T10:23:22;102321.34;;;12.97;28.95
74834;BME280;63361;52.384;20.930;2023-02-28T10:25:59;102316.72;;;14.29;26.96
74834;BME280;63361;52.384;20.930;2023-02-28T10:28:25;102281.66;;;14.96;26.25
74834;BME280;63361;52.384;20.930;2023-02-28T10:30:53;102302.03;;;14.94;25.41
74834;BME280;63361;52.384;20.930;2023-02-28T10:33:23;102288.09;;;15.27;24.89
74834;BME280;63361;52.384;20.930;2023-02-28T10:35:49;102296.22;;;12.68;28.27
74834;BME280;63361;52.384;20.930;2023-02-28T10:38:27;102277.03;;;14.28;26.92
74834;BME280;63361;52.384;20.930;2023-02-28T10:41:14;102289.53;;;15.50;26.04
74834;BME280;63361;52.384;20.930;2023-02-28T10:43:41;102290.28;;;16.43;24.30
74834;BME280;63361;52.384;20.930;2023-02-28T10:51:18;102287.19;;;14.69;26.38
74834;BME280;63361;52.384;20.930;2023-02-28T10:53:49;102276.31;;;13.35;27.08
74834;BME280;63361;52.384;20.930;2023-02-28T10:56:25;102255.84;;;13.98;26.19
74834;BME280;63361;52.384;20.930;2023-02-28T11:01:24;102249.78;;;14.45;26.36
74834;BME280;63361;52.384;20.930;2023-02-28T11:03:51;102252.63;;;13.74;27.54
74834;BME280;63361;52.384;20.930;2023-02-28T11:06:29;102265.06;;;12.32;29.10
74834;BME280;63361;52.384;20.930;2023-02-28T11:09:03;102260.81;;;12.92;28.52
74834;BME280;63361;52.384;20.930;2023-02-28T11:11:31;102264.66;;;13.34;28.48
74834;BME280;63361;52.384;20.930;2023-02-28T11:14:19;102256.94;;;12.32;29.60
74834;BME280;63361;52.384;20.930;2023-02-28T11:16:46;102213.50;;;11.66;29.44
74834;BME280;63361;52.384;20.930;2023-02-28T11:19:19;102252.78;;;11.68;30.10
74834;BME280;63361;52.384;20.930;2023-02-28T11:21:55;102252.00;;;13.01;28.66
74834;BME280;63361;52.384;20.930;2023-02-28T11:26:55;102227.50;;;11.34;31.65
74834;BME280;63361;52.384;20.930;2023-02-28T11:29:23;102245.81;;;11.44;31.35
74834;BME280;63361;52.384;20.930;2023-02-28T11:34:34;102235.09;;;12.94;28.92
74834;BME280;63361;52.384;20.930;2023-02-28T11:37:01;102206.88;;;13.34;28.06
74834;BME280;63361;52.384;20.930;2023-02-28T11:39:30;102231.03;;;14.16;27.13
74834;BME280;63361;52.384;20.930;2023-02-28T11:42:07;102203.16;;;14.68;26.74
74834;BME280;63361;52.384;20.930;2023-02-28T11:53:01;102235.69;;;11.79;28.89
74834;BME280;63361;52.384;20.930;2023-02-28T11:55:42;102212.28;;;13.12;27.95
74834;BME280;63361;52.384;20.930;2023-02-28T12:06:40;102210.78;;;13.43;27.96
74834;BME280;63361;52.384;20.930;2023-02-28T12:11:52;102185.59;;;14.06;26.75
74834;BME280;63361;52.384;20.930;2023-02-28T12:14:30;102199.53;;;14.47;26.27
74834;BME280;63361;52.384;20.930;2023-02-28T12:19:58;102187.28;;;14.45;25.79
74834;BME280;63361;52.384;20.930;2023-02-28T12:22:45;102187.38;;;13.64;26.70
74834;BME280;63361;52.384;20.930;2023-02-28T12:28:21;102181.88;;;13.54;27.24
74834;BME280;63361;52.384;20.930;2023-02-28T12:31:14;102174.03;;;13.57;27.48
74834;BME280;63361;52.384;20.930;2023-02-28T12:33:45;102173.06;;;14.00;27.11
74834;BME280;63361;52.384;20.930;2023-02-28T12:36:16;102181.69;;;13.65;27.05
74834;BME280;63361;52.384;20.930;2023-02-28T12:39:12;102171.63;;;13.34;27.25
74834;BME280;63361;52.384;20.930;2023-02-28T12:42:12;102180.78;;;13.28;27.60
74834;BME280;63361;52.384;20.930;2023-02-28T12:45:07;102169.47;;;13.36;27.13
74834;BME280;63361;52.384;20.930;2023-02-28T12:47:35;102169.31;;;13.48;26.95
74834;BME280;63361;52.384;20.930;2023-02-28T12:50:08;102169.00;;;11.73;28.61
74834;BME280;63361;52.384;20.930;2023-02-28T12:55:49;102165.69;;;13.64;26.91
74834;BME280;63361;52.384;20.930;2023-02-28T12:58:31;102159.53;;;11.87;29.21
74834;BME280;63361;52.384;20.930;2023-02-28T13:09:31;102145.19;;;9.92;30.83
74834;BME280;63361;52.384;20.930;2023-02-28T13:11:57;102144.75;;;10.41;31.25
74834;BME280;63361;52.384;20.930;2023-02-28T13:14:28;102148.09;;;10.83;31.34
74834;BME280;63361;52.384;20.930;2023-02-28T13:16:58;102145.63;;;11.22;30.36
74834;BME280;63361;52.384;20.930;2023-02-28T13:19:27;102140.19;;;12.12;29.88
74834;BME280;63361;52.384;20.930;2023-02-28T13:21:53;102101.31;;;11.85;29.38
74834;BME280;63361;52.384;20.930;2023-02-28T13:24:49;102137.91;;;11.14;30.12
74834;BME280;63361;52.384;20.930;2023-02-28T13:27:41;102135.50;;;11.74;29.41
74834;BME280;63361;52.384;20.930;2023-02-28T13:38:46;102118.75;;;12.27;28.33
74834;BME280;63361;52.384;20.930;2023-02-28T13:46:32;102113.59;;;11.59;28.70
74834;BME280;63361;52.384;20.930;2023-02-28T13:49:31;102099.19;;;9.75;30.33
74834;BME280;63361;52.384;20.930;2023-02-28T13:54:34;102104.47;;;10.63;30.27
74834;BME280;63361;52.384;20.930;2023-02-28T14:05:28;102093.94;;;10.03;32.45
74834;BME280;63361;52.384;20.930;2023-02-28T14:07:57;102089.94;;;8.26;34.68
74834;BME280;63361;52.384;20.930;2023-02-28T14:10:31;102087.13;;;6.77;37.57
74834;BME280;63361;52.384;20.930;2023-02-28T14:13:13;102076.22;;;6.65;38.33
74834;BME280;63361;52.384;20.930;2023-02-28T14:18:22;102094.16;;;7.97;36.18
74834;BME280;63361;52.384;20.930;2023-02-28T14:20:49;102067.38;;;8.27;35.53
74834;BME280;63361;52.384;20.930;2023-02-28T14:31:12;102052.28;;;9.11;33.67
74834;BME280;63361;52.384;20.930;2023-02-28T14:36:25;102056.69;;;8.75;34.38
74834;BME280;63361;52.384;20.930;2023-02-28T14:38:54;102065.69;;;8.69;35.43
74834;BME280;63361;52.384;20.930;2023-02-28T14:41:23;102051.25;;;8.64;34.89
74834;BME280;63361;52.384;20.930;2023-02-28T14:43:55;102059.56;;;8.44;34.99
74834;BME280;63361;52.384;20.930;2023-02-28T14:46:23;102052.63;;;8.36;34.96
74834;BME280;63361;52.384;20.930;2023-02-28T14:48:50;102052.75;;;8.23;35.28
74834;BME280;63361;52.384;20.930;2023-02-28T14:51:21;102047.72;;;8.27;36.22
74834;BME280;63361;52.384;20.930;2023-02-28T14:53:50;102053.69;;;8.10;35.53
74834;BME280;63361;52.384;20.930;2023-02-28T14:56:26;102058.25;;;7.92;35.86